createdAt,value
2019-04-05T00:00:06.201Z,0.20
2019-04-05T00:01:11.349Z,0.50
2019-04-05T00:02:13.024Z,0.88
2019-04-05T00:03:14.394Z,0.77
2019-04-05T00:04:15.777Z,0.55
2019-04-05T00:05:17.151Z,0.67
2019-04-05T00:06:18.544Z,1.12
2019-04-05T00:07:20.028Z,0.30
2019-04-05T00:08:21.416Z,0.47
2019-04-05T00:09:22.804Z,0.68
2019-04-05T00:10:24.391Z,1.30
2019-04-05T00:11:25.891Z,0.62
2019-04-05T00:12:27.463Z,0.80
2019-04-05T00:13:28.861Z,0.75
2019-04-05T00:14:30.242Z,0.42
2019-04-05T00:15:31.650Z,0.60
2019-04-05T00:16:33.072Z,0.80
2019-04-05T00:17:34.560Z,0.50
2019-04-05T00:18:35.942Z,1.10
2019-04-05T00:19:37.393Z,0.62
2019-04-05T00:20:38.793Z,0.70
2019-04-05T00:21:40.195Z,0.45
2019-04-05T00:22:41.580Z,0.55
2019-04-05T00:23:43.095Z,0.68
2019-04-05T00:24:44.468Z,0.50
2019-04-05T00:25:45.861Z,0.33
2019-04-05T00:26:47.358Z,0.85
2019-04-05T00:27:48.753Z,0.50
2019-04-05T00:28:51.804Z,0.98
2019-04-05T00:29:53.329Z,0.60
2019-04-05T00:30:54.804Z,0.60
2019-04-05T00:31:56.274Z,1.12
2019-04-05T00:32:57.646Z,0.95
2019-04-05T00:33:59.029Z,0.50
2019-04-05T00:35:00.415Z,0.57
2019-04-05T00:36:03.236Z,0.70
2019-04-05T00:37:04.733Z,0.90
2019-04-05T00:38:06.116Z,0.42
2019-04-05T00:39:07.807Z,0.42
2019-04-05T00:40:09.689Z,0.55
2019-04-05T00:41:11.168Z,0.68
2019-04-05T00:42:12.578Z,0.55
2019-04-05T00:43:13.950Z,0.93
2019-04-05T00:44:15.347Z,0.60
2019-04-05T00:45:27.427Z,0.95
2019-04-05T00:46:20.020Z,0.40
2019-04-05T00:47:21.512Z,0.30
2019-04-05T00:48:22.901Z,1.35
2019-04-05T00:49:24.291Z,0.50
2019-04-05T00:50:26.702Z,0.50
2019-04-05T00:51:28.068Z,0.50
2019-04-05T00:52:29.468Z,0.80
2019-04-05T00:53:30.850Z,0.50
2019-04-05T00:54:32.246Z,0.50
2019-04-05T00:55:33.714Z,0.30
2019-04-05T00:56:35.104Z,0.80
2019-04-05T00:57:36.588Z,0.60
2019-04-05T00:58:38.001Z,0.25
2019-04-05T00:59:39.412Z,0.85
2019-04-05T01:00:40.821Z,0.62
2019-04-05T01:01:42.308Z,0.65
2019-04-05T01:02:43.909Z,0.55
2019-04-05T01:03:45.282Z,0.50
2019-04-05T01:04:46.676Z,0.60
2019-04-05T01:05:48.051Z,0.50
2019-04-05T01:06:49.554Z,0.78
2019-04-05T01:07:50.940Z,0.53
2019-04-05T01:08:52.427Z,0.50
2019-04-05T01:09:54.116Z,0.60
2019-04-05T01:10:55.501Z,0.65
2019-04-05T01:11:56.889Z,0.62
2019-04-05T01:12:58.316Z,1.98
2019-04-05T01:14:00.292Z,0.55
2019-04-05T01:15:01.786Z,0.35
2019-04-05T01:16:04.163Z,0.93
2019-04-05T01:17:05.550Z,0.40
2019-04-05T01:18:06.932Z,0.60
2019-04-05T01:19:08.318Z,0.85
2019-04-05T01:20:11.700Z,0.37
2019-04-05T01:21:16.750Z,0.45
2019-04-05T01:22:21.862Z,0.50
2019-04-05T01:23:23.775Z,0.55
2019-04-05T01:24:25.452Z,0.75
2019-04-05T01:25:26.947Z,0.50
2019-04-05T01:26:29.721Z,0.55
2019-04-05T01:27:31.115Z,0.50
2019-04-05T01:28:33.097Z,0.40
2019-04-05T01:29:34.795Z,0.75
2019-04-05T01:30:36.205Z,0.50
2019-04-05T01:31:37.622Z,0.45
2019-04-05T01:32:39.002Z,0.40
2019-04-05T01:33:41.464Z,0.40
2019-04-05T01:34:42.840Z,0.50
2019-04-05T01:35:44.235Z,0.45
2019-04-05T01:36:45.727Z,0.57
2019-04-05T01:37:47.413Z,1.05
2019-04-05T01:38:48.809Z,1.75
2019-04-05T01:39:50.309Z,0.40
2019-04-05T01:40:53.691Z,0.45
2019-04-05T01:41:55.184Z,0.40
2019-04-05T01:42:57.068Z,0.50
2019-04-05T01:43:58.497Z,0.47
2019-04-05T01:45:00.868Z,0.75
2019-04-05T01:46:02.464Z,0.30
2019-04-05T01:47:04.036Z,0.40
2019-04-05T01:48:05.536Z,0.53
2019-04-05T01:49:06.999Z,1.05
2019-04-05T01:50:08.915Z,0.55
2019-04-05T01:51:10.499Z,0.47
2019-04-05T01:52:11.982Z,1.02
2019-04-05T01:53:13.390Z,0.53
2019-04-05T01:54:14.799Z,0.50
2019-04-05T01:55:16.175Z,0.60
2019-04-05T01:56:17.575Z,0.93
2019-04-05T01:57:18.961Z,0.45
2019-04-05T01:58:20.430Z,0.55
2019-04-05T01:59:21.866Z,0.88
2019-04-05T02:00:23.297Z,0.68
2019-04-05T02:01:24.932Z,0.40
2019-04-05T02:02:27.305Z,0.68
2019-04-05T02:03:28.697Z,0.60
2019-04-05T02:04:30.398Z,0.42
2019-04-05T02:05:31.871Z,0.53
2019-04-05T02:06:34.236Z,0.47
2019-04-05T02:07:36.422Z,0.50
2019-04-05T02:08:37.892Z,0.62
2019-04-05T02:09:40.489Z,0.40
2019-04-05T02:10:42.076Z,0.53
2019-04-05T02:11:43.458Z,0.50
2019-04-05T02:12:44.840Z,0.25
2019-04-05T02:13:46.220Z,0.50
2019-04-05T02:14:47.717Z,0.45
2019-04-05T02:15:49.093Z,0.42
2019-04-05T02:16:50.489Z,0.82
2019-04-05T02:17:52.365Z,0.40
2019-04-05T02:18:53.760Z,0.45
2019-04-05T02:19:55.144Z,0.53
2019-04-05T02:20:56.532Z,0.47
2019-04-05T02:21:57.917Z,0.60
2019-04-05T02:23:00.299Z,0.70
2019-04-05T02:24:01.787Z,0.40
2019-04-05T02:25:05.184Z,0.75
2019-04-05T02:26:06.654Z,0.47
2019-04-05T02:27:08.049Z,1.02
2019-04-05T02:28:09.421Z,0.82
2019-04-05T02:29:10.818Z,0.60
2019-04-05T02:30:12.511Z,0.47
2019-04-05T02:31:13.884Z,0.50
2019-04-05T02:32:15.265Z,0.85
2019-04-05T02:33:16.650Z,0.45
2019-04-05T02:34:18.018Z,0.75
2019-04-05T02:35:20.576Z,0.30
2019-04-05T02:36:21.939Z,0.40
2019-04-05T02:37:23.315Z,0.55
2019-04-05T02:38:24.696Z,0.50
2019-04-05T02:39:26.200Z,0.50
2019-04-05T02:40:29.471Z,0.57
2019-04-05T02:41:31.455Z,0.42
2019-04-05T02:42:33.336Z,1.25
2019-04-05T02:43:36.928Z,0.88
2019-04-05T02:44:38.911Z,0.30
2019-04-05T02:45:41.506Z,0.50
2019-04-05T02:46:45.075Z,0.95
2019-04-05T02:47:51.873Z,1.17
2019-04-05T02:48:54.139Z,0.50
2019-04-05T02:49:56.042Z,0.88
2019-04-05T02:51:00.520Z,0.42
2019-04-05T02:52:03.015Z,0.70
2019-04-05T02:53:07.994Z,0.95
2019-04-05T02:54:10.190Z,0.53
2019-04-05T02:55:12.170Z,0.50
2019-04-05T02:56:13.871Z,0.42
2019-04-05T02:57:16.149Z,0.60
2019-04-05T02:58:17.948Z,0.50
2019-04-05T02:59:20.842Z,0.60
2019-04-05T03:00:22.647Z,0.50
2019-04-05T03:01:24.645Z,0.80
2019-04-05T03:02:26.720Z,0.50
2019-04-05T03:03:28.223Z,0.55
2019-04-05T03:04:30.894Z,0.50
2019-04-05T03:05:32.839Z,1.22
2019-04-05T03:06:34.628Z,0.65
2019-04-05T03:07:36.029Z,0.70
2019-04-05T03:08:39.233Z,0.85
2019-04-05T03:09:41.774Z,1.55
2019-04-05T03:11:09.553Z,1.02
2019-04-05T03:12:11.048Z,0.70
2019-04-05T03:13:12.732Z,0.80
2019-04-05T03:14:14.127Z,1.90
2019-04-05T03:15:15.592Z,0.70
2019-04-05T03:16:20.602Z,0.70
2019-04-05T03:17:22.936Z,1.17
2019-04-05T03:18:27.138Z,0.90
2019-04-05T03:19:31.940Z,1.15
2019-04-05T03:20:33.438Z,1.82
2019-04-05T03:21:38.472Z,0.80
2019-04-05T03:22:39.966Z,0.88
2019-04-05T03:23:42.538Z,0.78
2019-04-05T03:24:44.727Z,1.17
2019-04-05T03:25:48.236Z,1.00
2019-04-05T03:26:53.411Z,1.65
2019-04-05T03:27:54.874Z,0.62
2019-04-05T03:28:59.689Z,0.65
2019-04-05T03:30:04.618Z,0.80
2019-04-05T03:31:06.211Z,1.42
2019-04-05T03:32:07.725Z,0.60
2019-04-05T03:33:09.124Z,0.70
2019-04-05T03:35:20.943Z,1.12
2019-04-05T03:36:22.383Z,0.50
2019-04-05T03:37:24.202Z,0.90
2019-04-05T03:38:25.899Z,0.60
2019-04-05T03:39:27.273Z,0.85
2019-04-05T03:40:29.371Z,0.70
2019-04-05T03:41:31.152Z,1.02
2019-04-05T03:42:32.616Z,0.68
2019-04-05T03:43:34.056Z,0.72
2019-04-05T03:44:35.471Z,2.05
2019-04-05T03:45:36.865Z,1.50
2019-04-05T03:46:54.732Z,0.70
2019-04-05T03:47:41.880Z,0.77
2019-04-05T03:48:44.472Z,0.88
2019-04-05T03:49:45.892Z,0.85
2019-04-05T03:50:47.500Z,0.80
2019-04-05T03:51:48.870Z,0.90
2019-04-05T03:52:50.265Z,0.80
2019-04-05T03:53:51.697Z,0.62
2019-04-05T03:54:53.078Z,1.07
2019-04-05T03:55:54.584Z,1.35
2019-04-05T03:56:55.999Z,1.12
2019-04-05T03:57:57.503Z,1.10
2019-04-05T03:58:59.099Z,0.80
2019-04-05T04:00:00.482Z,1.20
2019-04-05T04:01:03.295Z,1.17
2019-04-05T04:02:04.652Z,1.12
2019-04-05T04:03:06.050Z,2.08
2019-04-05T04:04:07.437Z,0.78
2019-04-05T04:05:08.935Z,2.95
2019-04-05T04:06:10.698Z,1.67
2019-04-05T04:07:12.216Z,1.82
2019-04-05T04:08:13.812Z,1.07
2019-04-05T04:09:15.210Z,0.90
2019-04-05T04:10:16.784Z,1.20
2019-04-05T04:11:18.782Z,1.35
2019-04-05T04:12:20.258Z,1.22
2019-04-05T04:13:21.646Z,1.75
2019-04-05T04:14:23.027Z,0.88
2019-04-05T04:15:25.242Z,1.10
2019-04-05T04:16:27.554Z,1.07
2019-04-05T04:17:28.968Z,1.65
2019-04-05T04:18:31.165Z,1.12
2019-04-05T04:19:32.665Z,1.20
2019-04-05T04:20:40.639Z,1.62
2019-04-05T04:21:51.569Z,1.55
2019-04-05T04:22:53.042Z,1.17
2019-04-05T04:23:54.534Z,1.12
2019-04-05T04:24:56.131Z,1.15
2019-04-05T04:25:58.320Z,2.27
2019-04-05T04:26:59.692Z,1.17
2019-04-05T04:28:01.461Z,1.52
2019-04-05T04:29:03.258Z,1.32
2019-04-05T04:30:05.958Z,2.00
2019-04-05T04:31:07.558Z,1.30
2019-04-05T04:32:09.064Z,1.52
2019-04-05T04:33:10.580Z,1.47
2019-04-05T04:34:12.088Z,1.22
2019-04-05T04:35:13.518Z,1.45
2019-04-05T04:36:14.922Z,1.57
2019-04-05T04:37:16.437Z,1.12
2019-04-05T04:38:18.074Z,1.40
2019-04-05T04:39:19.629Z,1.35
2019-04-05T04:40:21.115Z,1.37
2019-04-05T04:41:22.488Z,1.40
2019-04-05T04:42:24.785Z,0.95
2019-04-05T04:43:26.254Z,1.42
2019-04-05T04:44:27.743Z,2.55
2019-04-05T04:45:29.255Z,1.05
2019-04-05T04:46:31.260Z,1.27
2019-04-05T04:47:32.784Z,1.15
2019-04-05T04:48:34.772Z,1.27
2019-04-05T04:49:36.177Z,1.30
2019-04-05T04:50:38.274Z,2.90
2019-04-05T04:51:40.045Z,1.40
2019-04-05T04:52:41.944Z,1.65
2019-04-05T04:53:43.821Z,1.77
2019-04-05T04:54:45.412Z,2.08
2019-04-05T04:55:46.803Z,2.22
2019-04-05T04:56:48.601Z,2.42
2019-04-05T04:57:50.114Z,1.32
2019-04-05T04:58:51.715Z,1.47
2019-04-05T04:59:53.324Z,1.20
2019-04-05T05:00:55.342Z,1.20
2019-04-05T05:01:56.712Z,1.20
2019-04-05T05:02:58.504Z,1.72
2019-04-05T05:04:00.076Z,1.07
2019-04-05T05:05:01.771Z,1.27
2019-04-05T05:06:03.857Z,1.00
2019-04-05T05:07:05.268Z,1.15
2019-04-05T05:08:07.476Z,0.93
2019-04-05T05:09:08.956Z,1.27
2019-04-05T05:10:11.517Z,0.85
2019-04-05T05:11:14.753Z,1.50
2019-04-05T05:12:16.286Z,1.27
2019-04-05T05:13:17.775Z,0.98
2019-04-05T05:14:19.254Z,1.17
2019-04-05T05:15:20.846Z,1.17
2019-04-05T05:16:22.462Z,1.57
2019-04-05T05:17:24.199Z,1.12
2019-04-05T05:18:25.930Z,1.17
2019-04-05T05:19:27.502Z,1.27
2019-04-05T05:20:29.196Z,1.37
2019-04-05T05:21:30.886Z,1.02
2019-04-05T05:22:32.671Z,1.10
2019-04-05T05:23:34.052Z,1.27
2019-04-05T05:24:35.441Z,1.42
2019-04-05T05:25:36.821Z,1.10
2019-04-05T05:26:38.309Z,1.22
2019-04-05T05:27:39.881Z,1.15
2019-04-05T05:28:41.373Z,2.00
2019-04-05T05:29:42.741Z,1.42
2019-04-05T05:30:44.133Z,1.27
2019-04-05T05:31:45.518Z,1.62
2019-04-05T05:32:47.001Z,1.80
2019-04-05T05:33:48.388Z,1.52
2019-04-05T05:35:01.450Z,1.40
2019-04-05T05:35:53.357Z,1.77
2019-04-05T05:36:55.046Z,1.45
2019-04-05T05:37:59.832Z,1.62
2019-04-05T05:39:01.318Z,1.37
2019-04-05T05:40:05.989Z,1.92
2019-04-05T05:41:07.459Z,1.27
2019-04-05T05:42:08.864Z,1.95
2019-04-05T05:43:10.245Z,1.80
2019-04-05T05:44:11.628Z,1.85
2019-04-05T05:45:13.107Z,1.22
2019-04-05T05:46:14.488Z,1.27
2019-04-05T05:47:15.984Z,1.40
2019-04-05T05:48:17.748Z,1.00
2019-04-05T05:49:19.142Z,1.50
2019-04-05T05:50:20.515Z,1.25
2019-04-05T05:51:22.009Z,1.27
2019-04-05T05:52:24.104Z,1.37
2019-04-05T05:53:25.889Z,1.20
2019-04-05T05:54:27.368Z,0.80
2019-04-05T05:55:30.190Z,1.55
2019-04-05T05:56:31.735Z,1.85
2019-04-05T05:57:33.129Z,1.02
2019-04-05T05:58:34.502Z,1.27
2019-04-05T05:59:35.899Z,1.10
2019-04-05T06:00:37.264Z,1.15
2019-04-05T06:01:38.770Z,1.10
2019-04-05T06:02:40.172Z,1.30
2019-04-05T06:03:41.554Z,1.55
2019-04-05T06:04:42.937Z,0.95
2019-04-05T06:05:44.319Z,0.95
2019-04-05T06:06:45.705Z,1.90
2019-04-05T06:07:47.300Z,0.93
2019-04-05T06:08:49.123Z,0.70
2019-04-05T06:09:50.524Z,2.08
2019-04-05T06:10:51.898Z,1.10
2019-04-05T06:11:53.357Z,1.00
2019-04-05T06:12:54.775Z,1.00
2019-04-05T06:13:56.153Z,0.93
2019-04-05T06:14:57.531Z,1.45
2019-04-05T06:15:59.113Z,1.57
2019-04-05T06:17:00.497Z,1.05
2019-04-05T06:18:04.994Z,1.52
2019-04-05T06:19:05.268Z,1.00
2019-04-05T06:20:07.560Z,1.37
2019-04-05T06:21:08.928Z,0.90
2019-04-05T06:22:10.328Z,0.78
2019-04-05T06:23:11.711Z,0.90
2019-04-05T06:24:13.120Z,1.12
2019-04-05T06:25:14.527Z,1.02
2019-04-05T06:26:15.944Z,1.30
2019-04-05T06:27:17.353Z,0.90
2019-04-05T06:28:18.748Z,1.22
2019-04-05T06:29:20.119Z,0.53
2019-04-05T06:30:21.615Z,0.80
2019-04-05T06:31:22.991Z,1.82
2019-04-05T06:32:24.402Z,1.07
2019-04-05T06:33:31.908Z,0.85
2019-04-05T06:34:29.170Z,1.47
2019-04-05T06:35:30.569Z,1.32
2019-04-05T06:36:31.974Z,0.70
2019-04-05T06:37:33.373Z,1.57
2019-04-05T06:38:34.837Z,1.32
2019-04-05T06:39:36.619Z,1.17
2019-04-05T06:40:41.199Z,0.62
2019-04-05T06:41:41.353Z,0.80
2019-04-05T06:42:42.843Z,1.00
2019-04-05T06:43:44.319Z,1.10
2019-04-05T06:44:45.845Z,1.40
2019-04-05T06:45:47.326Z,0.70
2019-04-05T06:46:48.779Z,0.80
2019-04-05T06:47:50.217Z,1.37
2019-04-05T06:48:51.644Z,0.78
2019-04-05T06:49:53.049Z,0.85
2019-04-05T06:50:54.443Z,0.90
2019-04-05T06:51:55.857Z,0.50
2019-04-05T06:52:57.290Z,0.70
2019-04-05T06:53:58.670Z,0.68
2019-04-05T06:55:00.077Z,0.70
2019-04-05T06:56:01.583Z,1.05
2019-04-05T06:57:03.021Z,2.55
2019-04-05T06:58:05.462Z,0.80
2019-04-05T06:59:06.881Z,1.07
2019-04-05T07:00:08.251Z,0.85
2019-04-05T07:01:09.651Z,0.90
2019-04-05T07:02:11.132Z,1.00
2019-04-05T07:03:13.716Z,1.82
2019-04-05T07:04:15.329Z,0.50
2019-04-05T07:05:16.767Z,1.10
2019-04-05T07:06:18.269Z,0.78
2019-04-05T07:07:19.675Z,0.53
2019-04-05T07:08:21.087Z,0.50
2019-04-05T07:09:22.508Z,0.72
2019-04-05T07:10:23.913Z,1.20
2019-04-05T07:11:25.346Z,0.82
2019-04-05T07:12:26.746Z,1.07
2019-04-05T07:13:28.219Z,0.80
2019-04-05T07:14:30.614Z,1.30
2019-04-05T07:15:32.018Z,1.50
2019-04-05T07:16:33.491Z,0.75
2019-04-05T07:17:34.895Z,0.78
2019-04-05T07:18:36.529Z,1.05
2019-04-05T07:19:38.164Z,3.35
2019-04-05T07:20:39.742Z,2.58
2019-04-05T07:21:41.269Z,12.85
2019-04-05T07:22:42.687Z,4.92
2019-04-05T07:23:44.213Z,12.00
2019-04-05T07:24:49.414Z,6.75
2019-04-05T07:25:50.014Z,9.83
2019-04-05T07:26:51.459Z,11.75
2019-04-05T07:27:52.868Z,9.48
2019-04-05T07:28:54.305Z,7.45
2019-04-05T07:29:55.809Z,12.05
2019-04-05T07:30:57.184Z,8.08
2019-04-05T07:31:58.610Z,8.80
2019-04-05T07:32:59.981Z,7.17
2019-04-05T07:34:01.381Z,5.67
2019-04-05T07:35:03.772Z,8.65
2019-04-05T07:36:05.276Z,12.35
2019-04-05T07:37:07.687Z,6.08
2019-04-05T07:38:09.870Z,4.47
2019-04-05T07:39:11.378Z,6.65
2019-04-05T07:40:13.279Z,6.78
2019-04-05T07:41:14.792Z,6.00
2019-04-05T07:42:16.781Z,14.00
2019-04-05T07:43:18.161Z,8.80
2019-04-05T07:44:19.665Z,6.35
2019-04-05T07:45:21.094Z,9.90
2019-04-05T07:46:22.492Z,8.40
2019-04-05T07:47:23.928Z,5.58
2019-04-05T07:48:26.363Z,6.62
2019-04-05T07:49:27.777Z,9.45
2019-04-05T07:50:29.276Z,3.05
2019-04-05T07:51:30.656Z,8.93
2019-04-05T07:52:32.055Z,3.72
2019-04-05T07:53:33.466Z,4.55
2019-04-05T07:54:35.004Z,6.42
2019-04-05T07:55:36.393Z,5.60
2019-04-05T07:56:37.804Z,5.03
2019-04-05T07:57:39.245Z,4.30
2019-04-05T07:58:40.676Z,3.60
2019-04-05T07:59:42.208Z,2.67
2019-04-05T08:00:54.417Z,4.10
2019-04-05T08:01:55.793Z,3.42
2019-04-05T08:02:57.191Z,4.33
2019-04-05T08:03:58.600Z,2.83
2019-04-05T08:05:00.030Z,3.02
2019-04-05T08:06:01.443Z,3.22
2019-04-05T08:07:03.697Z,1.62
2019-04-05T08:08:08.805Z,4.33
2019-04-05T08:09:11.313Z,2.47
2019-04-05T08:10:12.752Z,4.20
2019-04-05T08:11:15.147Z,3.10
2019-04-05T08:12:16.752Z,2.33
2019-04-05T08:13:20.196Z,2.27
2019-04-05T08:14:22.494Z,2.75
2019-04-05T08:15:23.875Z,1.95
2019-04-05T08:16:26.683Z,0.80
2019-04-05T08:17:28.063Z,1.87
2019-04-05T08:18:29.461Z,2.15
2019-04-05T08:19:30.866Z,3.02
2019-04-05T08:20:32.291Z,3.60
2019-04-05T08:21:33.675Z,3.02
2019-04-05T08:22:35.063Z,0.93
2019-04-05T08:23:36.452Z,1.37
2019-04-05T08:24:37.934Z,2.60
2019-04-05T08:25:41.149Z,2.35
2019-04-05T08:26:42.863Z,1.40
2019-04-05T08:27:44.246Z,1.07
2019-04-05T08:28:45.641Z,1.32
2019-04-05T08:29:47.054Z,1.87
2019-04-05T08:30:48.476Z,1.22
2019-04-05T08:31:49.901Z,1.37
2019-04-05T08:32:51.305Z,1.15
2019-04-05T08:33:52.721Z,1.35
2019-04-05T08:34:54.168Z,1.60
2019-04-05T08:35:55.706Z,1.52
2019-04-05T08:36:57.147Z,2.22
2019-04-05T08:37:58.651Z,2.20
2019-04-05T08:39:00.055Z,1.17
2019-04-05T08:40:01.459Z,1.62
2019-04-05T08:41:03.365Z,1.67
2019-04-05T08:42:04.973Z,1.07
2019-04-05T08:43:06.344Z,1.52
2019-04-05T08:44:08.171Z,1.00
2019-04-05T08:45:09.920Z,1.75
2019-04-05T08:46:11.291Z,1.77
2019-04-05T08:47:12.880Z,0.95
2019-04-05T08:48:14.261Z,2.33
2019-04-05T08:49:15.641Z,2.17
2019-04-05T08:50:17.121Z,1.87
2019-04-05T08:51:18.508Z,2.27
2019-04-05T08:52:19.905Z,1.30
2019-04-05T08:53:21.474Z,1.50
2019-04-05T08:54:32.594Z,2.30
2019-04-05T08:55:26.343Z,1.12
2019-04-05T08:56:27.740Z,1.07
2019-04-05T08:57:29.230Z,1.27
2019-04-05T08:58:33.577Z,1.25
2019-04-05T08:59:33.900Z,1.87
2019-04-05T09:00:35.285Z,0.95
2019-04-05T09:01:36.767Z,0.70
2019-04-05T09:02:38.212Z,3.72
2019-04-05T09:03:39.649Z,1.02
2019-04-05T09:04:41.138Z,1.10
2019-04-05T09:05:42.513Z,1.92
2019-04-05T09:06:43.966Z,0.93
2019-04-05T09:07:45.419Z,1.37
2019-04-05T09:08:46.804Z,5.25
2019-04-05T09:09:48.184Z,1.70
2019-04-05T09:10:49.570Z,11.70
2019-04-05T09:11:50.950Z,4.55
2019-04-05T09:12:52.343Z,6.53
2019-04-05T09:13:53.715Z,4.53
2019-04-05T09:14:56.051Z,0.98
2019-04-05T09:15:57.763Z,2.33
2019-04-05T09:16:59.146Z,0.90
2019-04-05T09:18:00.543Z,3.22
2019-04-05T09:19:02.012Z,2.90
2019-04-05T09:20:04.014Z,3.03
2019-04-05T09:21:05.385Z,2.05
2019-04-05T09:22:06.768Z,4.42
2019-04-05T09:23:08.160Z,3.90
2019-04-05T09:24:09.528Z,9.13
2019-04-05T09:25:11.063Z,7.00
2019-04-05T09:26:12.532Z,11.60
2019-04-05T09:27:14.037Z,5.70
2019-04-05T09:28:15.548Z,5.53
2019-04-05T09:29:16.966Z,2.85
2019-04-05T09:30:18.665Z,2.15
2019-04-05T09:31:20.072Z,2.50
2019-04-05T09:32:21.475Z,6.37
2019-04-05T09:33:22.888Z,3.33
2019-04-05T09:34:24.260Z,4.97
2019-04-05T09:35:25.662Z,2.55
2019-04-05T09:36:27.127Z,2.60
2019-04-05T09:37:28.616Z,3.17
2019-04-05T09:38:30.022Z,4.60
2019-04-05T09:39:31.512Z,3.25
2019-04-05T09:40:32.916Z,1.80
2019-04-05T09:41:34.361Z,4.67
2019-04-05T09:42:35.725Z,4.85
2019-04-05T09:43:37.145Z,2.90
2019-04-05T09:44:38.617Z,4.87
2019-04-05T09:45:40.012Z,1.95
2019-04-05T09:46:47.222Z,2.80
2019-04-05T09:47:44.820Z,4.00
2019-04-05T09:48:46.399Z,2.22
2019-04-05T09:49:48.880Z,2.02
2019-04-05T09:50:50.308Z,2.15
2019-04-05T09:51:51.648Z,1.35
2019-04-05T09:52:53.034Z,1.00
2019-04-05T09:53:54.530Z,1.72
2019-04-05T09:54:55.899Z,1.40
2019-04-05T09:55:57.294Z,2.67
2019-04-05T09:56:58.664Z,1.95
2019-04-05T09:58:00.162Z,2.98
2019-04-05T09:59:01.547Z,1.60
2019-04-05T10:00:11.153Z,1.85
2019-04-05T10:01:12.634Z,1.60
2019-04-05T10:02:15.030Z,4.05
2019-04-05T10:03:16.504Z,1.60
2019-04-05T10:04:18.026Z,2.30
2019-04-05T10:05:19.595Z,1.35
2019-04-05T10:06:21.091Z,2.62
2019-04-05T10:07:22.461Z,2.55
2019-04-05T10:08:23.970Z,2.58
2019-04-05T10:09:25.486Z,1.87
2019-04-05T10:10:26.876Z,2.27
2019-04-05T10:11:28.260Z,1.32
2019-04-05T10:12:29.745Z,1.40
2019-04-05T10:13:31.230Z,2.50
2019-04-05T10:14:32.656Z,2.80
2019-04-05T10:15:34.035Z,1.80
2019-04-05T10:16:35.426Z,1.52
2019-04-05T10:17:38.877Z,1.27
2019-04-05T10:18:40.262Z,2.52
2019-04-05T10:19:49.929Z,1.67
2019-04-05T10:20:44.955Z,1.10
2019-04-05T10:21:46.333Z,1.22
2019-04-05T10:22:47.722Z,1.42
2019-04-05T10:23:49.108Z,1.62
2019-04-05T10:24:50.585Z,1.00
2019-04-05T10:25:52.095Z,2.98
2019-04-05T10:26:53.487Z,1.85
2019-04-05T10:27:54.873Z,2.83
2019-04-05T10:28:56.255Z,1.57
2019-04-05T10:29:57.665Z,1.98
2019-04-05T10:30:59.038Z,1.35
2019-04-05T10:32:01.444Z,2.37
2019-04-05T10:33:02.919Z,1.60
2019-04-05T10:34:04.336Z,1.60
2019-04-05T10:35:06.649Z,0.90
2019-04-05T10:36:08.056Z,1.62
2019-04-05T10:37:09.566Z,1.52
2019-04-05T10:38:10.972Z,1.98
2019-04-05T10:39:12.376Z,2.40
2019-04-05T10:40:14.303Z,2.27
2019-04-05T10:41:15.772Z,1.60
2019-04-05T10:42:32.203Z,1.65
2019-04-05T10:43:33.586Z,1.77
2019-04-05T10:44:34.982Z,2.37
2019-04-05T10:45:36.365Z,1.40
2019-04-05T10:46:37.754Z,1.27
2019-04-05T10:47:39.324Z,2.37
2019-04-05T10:48:42.640Z,2.05
2019-04-05T10:49:44.032Z,1.47
2019-04-05T10:50:45.524Z,1.45
2019-04-05T10:51:47.002Z,1.77
2019-04-05T10:52:48.393Z,1.37
2019-04-05T10:53:49.761Z,1.40
2019-04-05T10:54:51.139Z,1.47
2019-04-05T10:55:52.532Z,1.30
2019-04-05T10:56:53.910Z,1.65
2019-04-05T10:57:55.413Z,1.95
2019-04-05T10:58:56.788Z,2.05
2019-04-05T10:59:58.280Z,0.82
2019-04-05T11:00:59.668Z,1.05
2019-04-05T11:02:01.149Z,0.80
2019-04-05T11:03:02.635Z,1.75
2019-04-05T11:04:04.015Z,1.98
2019-04-05T11:05:05.598Z,1.50
2019-04-05T11:06:07.098Z,1.92
2019-04-05T11:07:08.469Z,1.10
2019-04-05T11:08:09.874Z,1.55
2019-04-05T11:09:11.833Z,0.75
2019-04-05T11:10:13.523Z,0.93
2019-04-05T11:11:14.940Z,1.12
2019-04-05T11:12:16.324Z,1.55
2019-04-05T11:13:17.716Z,1.95
2019-04-05T11:14:19.193Z,1.75
2019-04-05T11:15:20.682Z,1.40
2019-04-05T11:16:22.091Z,2.22
2019-04-05T11:17:23.464Z,2.45
2019-04-05T11:18:24.919Z,2.20
2019-04-05T11:19:26.584Z,1.90
2019-04-05T11:20:27.977Z,2.72
2019-04-05T11:21:29.485Z,1.30
2019-04-05T11:22:30.890Z,1.25
2019-04-05T11:23:33.282Z,2.10
2019-04-05T11:24:34.667Z,1.35
2019-04-05T11:25:36.145Z,1.35
2019-04-05T11:26:37.552Z,1.15
2019-04-05T11:27:38.956Z,2.40
2019-04-05T11:28:40.364Z,2.27
2019-04-05T11:29:41.799Z,0.82
2019-04-05T11:30:44.296Z,1.45
2019-04-05T11:31:56.376Z,1.95
2019-04-05T11:32:49.192Z,3.25
2019-04-05T11:33:50.592Z,1.98
2019-04-05T11:34:52.166Z,0.80
2019-04-05T11:35:53.756Z,1.70
2019-04-05T11:36:55.146Z,1.27
2019-04-05T11:37:56.553Z,1.45
2019-04-05T11:38:57.958Z,1.35
2019-04-05T11:39:59.470Z,1.07
2019-04-05T11:41:01.183Z,1.00
2019-04-05T11:42:02.679Z,1.57
2019-04-05T11:43:04.054Z,2.08
2019-04-05T11:44:05.449Z,1.00
2019-04-05T11:45:07.821Z,1.62
2019-04-05T11:46:09.313Z,1.32
2019-04-05T11:47:10.833Z,2.33
2019-04-05T11:48:12.220Z,1.30
2019-04-05T11:49:13.854Z,1.02
2019-04-05T11:50:15.550Z,1.25
2019-04-05T11:51:16.944Z,2.15
2019-04-05T11:52:18.524Z,1.92
2019-04-05T11:53:21.969Z,2.17
2019-04-05T11:54:23.266Z,3.85
2019-04-05T11:55:24.753Z,1.87
2019-04-05T11:56:26.239Z,1.50
2019-04-05T11:57:27.664Z,1.70
2019-04-05T11:58:29.050Z,2.08
2019-04-05T11:59:30.463Z,1.35
2019-04-05T12:00:42.293Z,2.10
2019-04-05T12:01:48.606Z,2.80
2019-04-05T12:02:51.923Z,1.17
2019-04-05T12:03:53.305Z,2.05
2019-04-05T12:04:56.599Z,1.25
2019-04-05T12:05:57.980Z,1.85
2019-04-05T12:06:59.356Z,2.45
2019-04-05T12:08:01.999Z,1.25
2019-04-05T12:09:06.549Z,0.98
2019-04-05T12:10:07.949Z,2.22
2019-04-05T12:11:10.322Z,2.67
2019-04-05T12:12:11.712Z,3.35
2019-04-05T12:13:13.092Z,1.87
2019-04-05T12:14:14.477Z,1.87
2019-04-05T12:15:15.865Z,1.95
2019-04-05T12:16:17.252Z,1.95
2019-04-05T12:17:18.633Z,1.87
2019-04-05T12:18:20.031Z,2.37
2019-04-05T12:19:21.498Z,0.82
2019-04-05T12:20:22.906Z,1.90
2019-04-05T12:21:24.588Z,1.80
2019-04-05T12:22:26.104Z,2.80
2019-04-05T12:23:27.510Z,1.02
2019-04-05T12:24:32.499Z,1.87
2019-04-05T12:25:33.775Z,2.72
2019-04-05T12:26:35.893Z,1.30
2019-04-05T12:27:37.277Z,1.45
2019-04-05T12:28:38.656Z,1.15
2019-04-05T12:29:40.124Z,1.30
2019-04-05T12:30:45.774Z,1.62
2019-04-05T12:31:46.491Z,4.17
2019-04-05T12:32:48.817Z,1.90
2019-04-05T12:33:52.191Z,2.45
2019-04-05T12:34:53.894Z,1.30
2019-04-05T12:35:56.651Z,2.15
2019-04-05T12:36:58.303Z,1.22
2019-04-05T12:37:59.704Z,1.42
2019-04-05T12:39:03.473Z,1.52
2019-04-05T12:40:09.593Z,1.57
2019-04-05T12:41:11.616Z,2.52
2019-04-05T12:42:13.138Z,1.47
2019-04-05T12:43:14.541Z,2.08
2019-04-05T12:44:15.949Z,1.47
2019-04-05T12:45:17.458Z,2.00
2019-04-05T12:46:19.863Z,1.40
2019-04-05T12:47:21.267Z,1.00
2019-04-05T12:48:22.760Z,1.70
2019-04-05T12:49:24.249Z,1.40
2019-04-05T12:50:25.624Z,3.72
2019-04-05T12:51:27.021Z,3.72
2019-04-05T12:52:32.617Z,2.42
2019-04-05T12:53:34.163Z,4.25
2019-04-05T12:54:35.566Z,2.70
2019-04-05T12:55:36.956Z,2.25
2019-04-05T12:56:38.379Z,1.62
2019-04-05T12:57:39.767Z,1.00
2019-04-05T12:58:42.159Z,1.87
2019-04-05T12:59:43.552Z,1.60
2019-04-05T13:00:44.927Z,1.07
2019-04-05T13:01:46.549Z,1.67
2019-04-05T13:02:50.331Z,3.12
2019-04-05T13:03:51.890Z,1.15
2019-04-05T13:04:53.500Z,1.37
2019-04-05T13:05:57.122Z,1.55
2019-04-05T13:06:58.175Z,1.30
2019-04-05T13:08:00.564Z,4.45
2019-04-05T13:09:05.385Z,1.85
2019-04-05T13:10:06.779Z,2.42
2019-04-05T13:11:08.158Z,2.47
2019-04-05T13:12:09.527Z,6.97
2019-04-05T13:13:10.920Z,2.55
2019-04-05T13:14:12.315Z,3.80
2019-04-05T13:15:17.000Z,1.27
2019-04-05T13:16:17.101Z,0.93
2019-04-05T13:17:18.492Z,1.77
2019-04-05T13:18:19.881Z,1.50
2019-04-05T13:19:21.256Z,3.25
2019-04-05T13:20:22.803Z,2.17
2019-04-05T13:21:27.510Z,1.00
2019-04-05T13:22:27.459Z,1.95
2019-04-05T13:23:29.452Z,1.42
2019-04-05T13:24:30.856Z,1.95
2019-04-05T13:25:32.331Z,3.00
2019-04-05T13:26:36.590Z,1.70
2019-04-05T13:27:36.997Z,1.20
2019-04-05T13:28:38.381Z,2.00
2019-04-05T13:29:39.859Z,1.42
2019-04-05T13:30:41.362Z,2.65
2019-04-05T13:31:42.730Z,2.35
2019-04-05T13:32:44.125Z,2.00
2019-04-05T13:33:45.496Z,3.70
2019-04-05T13:34:46.893Z,0.95
2019-04-05T13:35:48.376Z,1.25
2019-04-05T13:36:49.867Z,1.22
2019-04-05T13:37:51.252Z,1.82
2019-04-05T13:38:54.912Z,3.08
2019-04-05T13:39:57.647Z,1.00
2019-04-05T13:41:01.572Z,2.62
2019-04-05T13:42:03.030Z,2.00
2019-04-05T13:43:04.421Z,2.05
2019-04-05T13:44:06.085Z,1.22